sensor_id;sensor_type;location;lat;lon;timestamp;P1;durP1;ratioP1;P2;durP2;ratioP2
82028;SDS011;71590;52.216;13.448;2024-03-23T00:56:43;18.17;;;4.73;;
82028;SDS011;71590;52.216;13.448;2024-03-23T00:59:13;18.17;;;4.80;;
82028;SDS011;71590;52.216;13.448;2024-03-23T01:01:58;14.23;;;4.47;;
82028;SDS011;71590;52.216;13.448;2024-03-23T01:04:25;13.37;;;4.20;;
82028;SDS011;71590;52.216;13.448;2024-03-23T01:06:51;17.40;;;4.70;;
82028;SDS011;71590;52.216;13.448;2024-03-23T01:09:29;12.53;;;4.00;;
82028;SDS011;71590;52.216;13.448;2024-03-23T01:12:15;14.23;;;4.20;;
82028;SDS011;71590;52.216;13.448;2024-03-23T01:14:47;15.23;;;4.10;;
82028;SDS011;71590;52.216;13.448;2024-03-23T01:17:17;10.93;;;4.43;;
82028;SDS011;71590;52.216;13.448;2024-03-23T01:19:43;19.10;;;4.70;;
82028;SDS011;71590;52.216;13.448;2024-03-23T01:22:15;14.50;;;4.07;;
82028;SDS011;71590;52.216;13.448;2024-03-23T01:24:44;12.93;;;3.80;;
82028;SDS011;71590;52.216;13.448;2024-03-23T01:27:20;19.03;;;4.87;;
82028;SDS011;71590;52.216;13.448;2024-03-23T01:29:47;12.17;;;4.17;;
82028;SDS011;71590;52.216;13.448;2024-03-23T01:32:16;16.17;;;4.40;;
82028;SDS011;71590;52.216;13.448;2024-03-23T01:34:45;22.60;;;5.03;;
82028;SDS011;71590;52.216;13.448;2024-03-23T01:37:11;21.27;;;4.57;;
82028;SDS011;71590;52.216;13.448;2024-03-23T01:39:38;16.77;;;4.90;;
82028;SDS011;71590;52.216;13.448;2024-03-23T01:42:06;12.43;;;4.20;;
82028;SDS011;71590;52.216;13.448;2024-03-23T01:44:39;21.03;;;5.03;;
82028;SDS011;71590;52.216;13.448;2024-03-23T01:47:09;17.40;;;4.30;;
82028;SDS011;71590;52.216;13.448;2024-03-23T01:49:35;13.73;;;4.17;;
82028;SDS011;71590;52.216;13.448;2024-03-23T01:52:01;16.17;;;4.10;;
82028;SDS011;71590;52.216;13.448;2024-03-23T01:54:28;13.93;;;4.27;;
82028;SDS011;71590;52.216;13.448;2024-03-23T01:56:54;18.20;;;4.30;;
82028;SDS011;71590;52.216;13.448;2024-03-23T01:59:21;17.80;;;4.63;;
82028;SDS011;71590;52.216;13.448;2024-03-23T02:01:47;13.07;;;4.13;;
82028;SDS011;71590;52.216;13.448;2024-03-23T02:04:14;15.63;;;4.50;;
82028;SDS011;71590;52.216;13.448;2024-03-23T02:06:39;17.63;;;4.13;;
82028;SDS011;71590;52.216;13.448;2024-03-23T02:09:06;14.53;;;4.33;;
82028;SDS011;71590;52.216;13.448;2024-03-23T02:11:32;19.60;;;4.73;;
82028;SDS011;71590;52.216;13.448;2024-03-23T02:13:58;12.03;;;4.10;;
82028;SDS011;71590;52.216;13.448;2024-03-23T02:16:24;15.20;;;4.40;;
82028;SDS011;71590;52.216;13.448;2024-03-23T02:18:52;16.10;;;4.47;;
82028;SDS011;71590;52.216;13.448;2024-03-23T02:21:17;19.47;;;4.60;;
82028;SDS011;71590;52.216;13.448;2024-03-23T02:23:45;15.20;;;4.20;;
82028;SDS011;71590;52.216;13.448;2024-03-23T02:26:10;21.20;;;5.07;;
82028;SDS011;71590;52.216;13.448;2024-03-23T02:28:37;16.27;;;4.77;;
82028;SDS011;71590;52.216;13.448;2024-03-23T02:31:03;18.10;;;4.07;;
82028;SDS011;71590;52.216;13.448;2024-03-23T02:33:29;19.17;;;4.30;;
82028;SDS011;71590;52.216;13.448;2024-03-23T02:35:55;18.90;;;4.53;;
82028;SDS011;71590;52.216;13.448;2024-03-23T02:38:22;13.37;;;4.47;;
82028;SDS011;71590;52.216;13.448;2024-03-23T02:40:49;17.37;;;4.20;;
82028;SDS011;71590;52.216;13.448;2024-03-23T02:43:15;23.37;;;4.70;;
82028;SDS011;71590;52.216;13.448;2024-03-23T02:45:41;20.20;;;4.93;;
82028;SDS011;71590;52.216;13.448;2024-03-23T02:48:08;14.73;;;3.97;;
82028;SDS011;71590;52.216;13.448;2024-03-23T02:50:33;11.13;;;4.27;;
82028;SDS011;71590;52.216;13.448;2024-03-23T02:53:00;19.20;;;4.50;;
82028;SDS011;71590;52.216;13.448;2024-03-23T02:55:25;10.97;;;3.33;;
82028;SDS011;71590;52.216;13.448;2024-03-23T02:57:53;17.87;;;4.03;;
82028;SDS011;71590;52.216;13.448;2024-03-23T03:00:18;13.80;;;4.13;;
82028;SDS011;71590;52.216;13.448;2024-03-23T03:02:45;15.57;;;4.43;;
82028;SDS011;71590;52.216;13.448;2024-03-23T03:05:11;14.13;;;4.43;;
82028;SDS011;71590;52.216;13.448;2024-03-23T03:07:39;15.23;;;4.53;;
82028;SDS011;71590;52.216;13.448;2024-03-23T03:10:06;16.17;;;4.10;;
82028;SDS011;71590;52.216;13.448;2024-03-23T03:12:35;11.47;;;4.10;;
82028;SDS011;71590;52.216;13.448;2024-03-23T03:15:02;19.53;;;5.33;;
82028;SDS011;71590;52.216;13.448;2024-03-23T03:17:30;13.20;;;4.30;;
82028;SDS011;71590;52.216;13.448;2024-03-23T03:19:55;15.43;;;5.10;;
82028;SDS011;71590;52.216;13.448;2024-03-23T03:22:22;20.30;;;4.43;;
82028;SDS011;71590;52.216;13.448;2024-03-23T03:24:47;13.67;;;4.50;;
82028;SDS011;71590;52.216;13.448;2024-03-23T03:27:14;10.87;;;3.70;;
82028;SDS011;71590;52.216;13.448;2024-03-23T03:29:40;19.73;;;5.00;;
82028;SDS011;71590;52.216;13.448;2024-03-23T03:32:08;20.20;;;5.10;;
82028;SDS011;71590;52.216;13.448;2024-03-23T03:34:33;17.17;;;4.37;;
82028;SDS011;71590;52.216;13.448;2024-03-23T03:37:00;15.53;;;4.10;;
82028;SDS011;71590;52.216;13.448;2024-03-23T03:39:25;16.33;;;3.80;;
82028;SDS011;71590;52.216;13.448;2024-03-23T03:41:52;14.50;;;3.73;;
82028;SDS011;71590;52.216;13.448;2024-03-23T03:44:18;17.53;;;4.37;;
82028;SDS011;71590;52.216;13.448;2024-03-23T03:46:44;11.20;;;4.20;;
82028;SDS011;71590;52.216;13.448;2024-03-23T03:49:11;14.93;;;4.63;;
82028;SDS011;71590;52.216;13.448;2024-03-23T03:51:37;18.10;;;4.73;;
82028;SDS011;71590;52.216;13.448;2024-03-23T03:54:03;13.80;;;4.10;;
82028;SDS011;71590;52.216;13.448;2024-03-23T03:56:29;20.43;;;4.67;;
82028;SDS011;71590;52.216;13.448;2024-03-23T03:58:55;10.37;;;4.17;;
82028;SDS011;71590;52.216;13.448;2024-03-23T04:01:22;17.23;;;4.77;;
82028;SDS011;71590;52.216;13.448;2024-03-23T04:03:47;17.73;;;4.90;;
82028;SDS011;71590;52.216;13.448;2024-03-23T04:06:19;13.93;;;4.30;;
82028;SDS011;71590;52.216;13.448;2024-03-23T04:08:45;18.17;;;5.00;;
82028;SDS011;71590;52.216;13.448;2024-03-23T04:11:11;16.47;;;4.93;;
82028;SDS011;71590;52.216;13.448;2024-03-23T04:13:37;14.93;;;5.10;;
82028;SDS011;71590;52.216;13.448;2024-03-23T04:16:03;11.47;;;4.23;;
82028;SDS011;71590;52.216;13.448;2024-03-23T04:18:29;13.50;;;4.33;;
82028;SDS011;71590;52.216;13.448;2024-03-23T04:20:55;10.67;;;3.97;;
82028;SDS011;71590;52.216;13.448;2024-03-23T04:23:22;17.13;;;4.77;;
82028;SDS011;71590;52.216;13.448;2024-03-23T04:25:49;16.60;;;4.50;;
82028;SDS011;71590;52.216;13.448;2024-03-23T04:28:15;18.90;;;5.23;;
82028;SDS011;71590;52.216;13.448;2024-03-23T04:30:41;13.87;;;4.70;;
82028;SDS011;71590;52.216;13.448;2024-03-23T04:33:07;15.60;;;4.60;;
82028;SDS011;71590;52.216;13.448;2024-03-23T04:35:33;19.03;;;4.77;;
82028;SDS011;71590;52.216;13.448;2024-03-23T04:37:59;15.77;;;4.20;;
82028;SDS011;71590;52.216;13.448;2024-03-23T04:40:27;15.20;;;5.07;;
82028;SDS011;71590;52.216;13.448;2024-03-23T04:42:53;15.47;;;4.77;;
82028;SDS011;71590;52.216;13.448;2024-03-23T04:45:20;15.83;;;4.57;;
82028;SDS011;71590;52.216;13.448;2024-03-23T04:47:48;17.70;;;4.70;;
82028;SDS011;71590;52.216;13.448;2024-03-23T04:50:14;16.00;;;4.53;;
82028;SDS011;71590;52.216;13.448;2024-03-23T04:52:41;18.53;;;5.03;;
82028;SDS011;71590;52.216;13.448;2024-03-23T04:55:08;14.60;;;4.83;;
82028;SDS011;71590;52.216;13.448;2024-03-23T04:57:36;18.37;;;4.60;;
82028;SDS011;71590;52.216;13.448;2024-03-23T05:00:02;18.30;;;4.90;;
82028;SDS011;71590;52.216;13.448;2024-03-23T05:02:29;13.27;;;4.27;;
82028;SDS011;71590;52.216;13.448;2024-03-23T05:04:57;16.67;;;4.40;;
82028;SDS011;71590;52.216;13.448;2024-03-23T05:07:23;17.17;;;4.50;;
82028;SDS011;71590;52.216;13.448;2024-03-23T05:09:49;14.50;;;4.10;;
82028;SDS011;71590;52.216;13.448;2024-03-23T05:12:15;17.20;;;4.20;;
82028;SDS011;71590;52.216;13.448;2024-03-23T05:14:42;21.53;;;5.13;;
82028;SDS011;71590;52.216;13.448;2024-03-23T05:17:09;10.93;;;4.03;;
82028;SDS011;71590;52.216;13.448;2024-03-23T05:19:34;15.10;;;4.33;;
82028;SDS011;71590;52.216;13.448;2024-03-23T05:22:01;14.07;;;4.70;;
82028;SDS011;71590;52.216;13.448;2024-03-23T05:24:26;12.13;;;4.63;;
82028;SDS011;71590;52.216;13.448;2024-03-23T05:26:54;9.70;;;4.27;;
82028;SDS011;71590;52.216;13.448;2024-03-23T05:29:19;9.10;;;3.67;;
82028;SDS011;71590;52.216;13.448;2024-03-23T05:31:49;13.07;;;3.57;;
82028;SDS011;71590;52.216;13.448;2024-03-23T05:34:14;11.30;;;3.37;;
82028;SDS011;71590;52.216;13.448;2024-03-23T05:36:41;13.43;;;4.23;;
82028;SDS011;71590;52.216;13.448;2024-03-23T05:39:06;10.20;;;3.67;;
82028;SDS011;71590;52.216;13.448;2024-03-23T05:41:33;11.13;;;3.83;;
82028;SDS011;71590;52.216;13.448;2024-03-23T05:44:01;10.20;;;3.03;;
82028;SDS011;71590;52.216;13.448;2024-03-23T05:46:27;7.57;;;2.40;;
82028;SDS011;71590;52.216;13.448;2024-03-23T05:48:54;8.37;;;2.37;;
82028;SDS011;71590;52.216;13.448;2024-03-23T05:51:27;4.57;;;1.77;;
82028;SDS011;71590;52.216;13.448;2024-03-23T05:53:53;5.73;;;2.30;;
82028;SDS011;71590;52.216;13.448;2024-03-23T05:56:19;7.23;;;2.37;;
82028;SDS011;71590;52.216;13.448;2024-03-23T05:58:45;6.47;;;2.40;;
82028;SDS011;71590;52.216;13.448;2024-03-23T06:01:12;7.13;;;2.70;;
82028;SDS011;71590;52.216;13.448;2024-03-23T06:03:38;8.50;;;2.53;;
82028;SDS011;71590;52.216;13.448;2024-03-23T06:06:05;6.07;;;2.47;;
82028;SDS011;71590;52.216;13.448;2024-03-23T06:08:36;8.73;;;2.80;;
82028;SDS011;71590;52.216;13.448;2024-03-23T06:11:03;8.83;;;3.10;;
82028;SDS011;71590;52.216;13.448;2024-03-23T06:13:29;9.10;;;2.93;;
82028;SDS011;71590;52.216;13.448;2024-03-23T06:15:56;6.90;;;2.77;;
82028;SDS011;71590;52.216;13.448;2024-03-23T06:18:22;8.13;;;2.80;;
82028;SDS011;71590;52.216;13.448;2024-03-23T06:20:49;11.27;;;3.10;;
82028;SDS011;71590;52.216;13.448;2024-03-23T06:23:15;9.17;;;2.80;;
82028;SDS011;71590;52.216;13.448;2024-03-23T06:25:45;7.10;;;2.60;;
82028;SDS011;71590;52.216;13.448;2024-03-23T06:28:10;10.20;;;2.90;;
82028;SDS011;71590;52.216;13.448;2024-03-23T06:30:37;10.67;;;3.10;;
82028;SDS011;71590;52.216;13.448;2024-03-23T06:33:03;7.90;;;3.00;;
82028;SDS011;71590;52.216;13.448;2024-03-23T06:35:30;14.07;;;3.53;;
82028;SDS011;71590;52.216;13.448;2024-03-23T06:37:56;13.40;;;2.93;;
82028;SDS011;71590;52.216;13.448;2024-03-23T06:40:24;11.00;;;3.53;;
82028;SDS011;71590;52.216;13.448;2024-03-23T06:42:50;11.77;;;3.27;;
82028;SDS011;71590;52.216;13.448;2024-03-23T06:45:16;12.23;;;3.63;;
82028;SDS011;71590;52.216;13.448;2024-03-23T06:47:42;10.63;;;3.60;;
82028;SDS011;71590;52.216;13.448;2024-03-23T06:50:08;9.00;;;3.60;;
82028;SDS011;71590;52.216;13.448;2024-03-23T06:52:35;12.10;;;3.43;;
82028;SDS011;71590;52.216;13.448;2024-03-23T06:55:02;10.87;;;3.90;;
82028;SDS011;71590;52.216;13.448;2024-03-23T06:57:31;5.67;;;3.20;;
82028;SDS011;71590;52.216;13.448;2024-03-23T06:59:57;11.73;;;3.87;;
82028;SDS011;71590;52.216;13.448;2024-03-23T07:02:23;9.90;;;3.93;;
82028;SDS011;71590;52.216;13.448;2024-03-23T07:04:49;10.77;;;4.83;;
82028;SDS011;71590;52.216;13.448;2024-03-23T07:07:15;10.77;;;4.50;;
82028;SDS011;71590;52.216;13.448;2024-03-23T07:09:41;10.73;;;5.03;;
82028;SDS011;71590;52.216;13.448;2024-03-23T07:12:07;11.40;;;4.90;;
82028;SDS011;71590;52.216;13.448;2024-03-23T07:14:34;15.83;;;5.27;;
82028;SDS011;71590;52.216;13.448;2024-03-23T07:17:00;11.43;;;4.90;;
82028;SDS011;71590;52.216;13.448;2024-03-23T07:19:26;9.30;;;5.30;;
82028;SDS011;71590;52.216;13.448;2024-03-23T07:21:53;13.50;;;5.70;;
82028;SDS011;71590;52.216;13.448;2024-03-23T07:24:20;17.03;;;6.20;;
82028;SDS011;71590;52.216;13.448;2024-03-23T07:26:45;10.27;;;5.40;;
82028;SDS011;71590;52.216;13.448;2024-03-23T07:29:12;12.37;;;5.90;;
82028;SDS011;71590;52.216;13.448;2024-03-23T07:31:39;9.87;;;5.93;;
82028;SDS011;71590;52.216;13.448;2024-03-23T07:34:06;13.30;;;6.03;;
82028;SDS011;71590;52.216;13.448;2024-03-23T07:36:32;13.23;;;5.40;;
82028;SDS011;71590;52.216;13.448;2024-03-23T07:38:58;15.27;;;6.90;;
82028;SDS011;71590;52.216;13.448;2024-03-23T07:41:24;18.20;;;7.20;;
82028;SDS011;71590;52.216;13.448;2024-03-23T07:43:53;12.23;;;6.37;;
82028;SDS011;71590;52.216;13.448;2024-03-23T07:46:20;18.60;;;6.53;;
82028;SDS011;71590;52.216;13.448;2024-03-23T07:48:48;13.07;;;6.23;;
82028;SDS011;71590;52.216;13.448;2024-03-23T07:51:16;13.27;;;4.83;;
82028;SDS011;71590;52.216;13.448;2024-03-23T07:53:43;14.47;;;4.53;;
82028;SDS011;71590;52.216;13.448;2024-03-23T07:56:08;16.80;;;5.30;;
82028;SDS011;71590;52.216;13.448;2024-03-23T07:58:36;18.23;;;5.73;;
82028;SDS011;71590;52.216;13.448;2024-03-23T08:01:05;11.17;;;4.07;;
82028;SDS011;71590;52.216;13.448;2024-03-23T08:03:33;13.03;;;4.90;;
82028;SDS011;71590;52.216;13.448;2024-03-23T08:06:07;17.43;;;5.07;;
82028;SDS011;71590;52.216;13.448;2024-03-23T08:08:33;8.83;;;4.00;;
82028;SDS011;71590;52.216;13.448;2024-03-23T08:10:59;9.10;;;3.93;;
82028;SDS011;71590;52.216;13.448;2024-03-23T08:13:26;10.73;;;3.77;;
82028;SDS011;71590;52.216;13.448;2024-03-23T08:15:51;11.43;;;4.03;;
82028;SDS011;71590;52.216;13.448;2024-03-23T08:18:18;10.87;;;4.43;;
82028;SDS011;71590;52.216;13.448;2024-03-23T08:20:43;13.33;;;4.07;;
82028;SDS011;71590;52.216;13.448;2024-03-23T08:23:11;13.40;;;3.97;;
82028;SDS011;71590;52.216;13.448;2024-03-23T08:25:37;19.73;;;3.83;;
82028;SDS011;71590;52.216;13.448;2024-03-23T08:28:03;12.40;;;3.47;;
82028;SDS011;71590;52.216;13.448;2024-03-23T08:30:29;11.33;;;3.03;;
82028;SDS011;71590;52.216;13.448;2024-03-23T08:32:55;10.50;;;2.67;;
82028;SDS011;71590;52.216;13.448;2024-03-23T08:35:21;4.33;;;2.30;;
82028;SDS011;71590;52.216;13.448;2024-03-23T08:37:47;9.80;;;2.73;;
82028;SDS011;71590;52.216;13.448;2024-03-23T08:40:14;7.93;;;3.30;;
82028;SDS011;71590;52.216;13.448;2024-03-23T08:42:41;11.00;;;3.83;;
82028;SDS011;71590;52.216;13.448;2024-03-23T08:45:07;8.70;;;2.33;;
82028;SDS011;71590;52.216;13.448;2024-03-23T08:47:34;11.47;;;4.00;;
82028;SDS011;71590;52.216;13.448;2024-03-23T08:50:00;16.20;;;3.23;;
82028;SDS011;71590;52.216;13.448;2024-03-23T08:52:26;9.87;;;3.63;;
82028;SDS011;71590;52.216;13.448;2024-03-23T08:54:53;8.03;;;3.83;;
82028;SDS011;71590;52.216;13.448;2024-03-23T08:57:22;11.37;;;4.00;;
82028;SDS011;71590;52.216;13.448;2024-03-23T08:59:48;8.20;;;3.33;;
82028;SDS011;71590;52.216;13.448;2024-03-23T09:02:14;11.80;;;3.30;;
82028;SDS011;71590;52.216;13.448;2024-03-23T09:04:40;6.93;;;3.50;;
82028;SDS011;71590;52.216;13.448;2024-03-23T09:07:06;19.33;;;5.03;;
82028;SDS011;71590;52.216;13.448;2024-03-23T09:09:32;13.30;;;5.50;;
82028;SDS011;71590;52.216;13.448;2024-03-23T09:11:58;19.80;;;6.37;;
82028;SDS011;71590;52.216;13.448;2024-03-23T09:14:25;11.83;;;5.27;;
82028;SDS011;71590;52.216;13.448;2024-03-23T09:16:52;10.63;;;4.30;;
82028;SDS011;71590;52.216;13.448;2024-03-23T09:19:17;17.40;;;4.10;;
82028;SDS011;71590;52.216;13.448;2024-03-23T09:21:44;10.50;;;3.50;;
82028;SDS011;71590;52.216;13.448;2024-03-23T09:24:09;7.23;;;3.63;;
82028;SDS011;71590;52.216;13.448;2024-03-23T09:26:36;11.10;;;3.77;;
82028;SDS011;71590;52.216;13.448;2024-03-23T09:29:01;7.73;;;3.00;;
82028;SDS011;71590;52.216;13.448;2024-03-23T09:31:30;9.77;;;3.40;;
82028;SDS011;71590;52.216;13.448;2024-03-23T09:33:57;7.97;;;2.20;;
82028;SDS011;71590;52.216;13.448;2024-03-23T09:36:23;6.13;;;1.93;;
82028;SDS011;71590;52.216;13.448;2024-03-23T09:38:49;6.87;;;2.70;;
82028;SDS011;71590;52.216;13.448;2024-03-23T09:41:15;6.47;;;2.53;;
82028;SDS011;71590;52.216;13.448;2024-03-23T09:43:41;6.93;;;2.60;;
82028;SDS011;71590;52.216;13.448;2024-03-23T09:46:07;9.63;;;3.27;;
82028;SDS011;71590;52.216;13.448;2024-03-23T09:48:34;5.63;;;2.50;;
82028;SDS011;71590;52.216;13.448;2024-03-23T09:51:01;6.60;;;2.77;;
82028;SDS011;71590;52.216;13.448;2024-03-23T09:53:27;13.63;;;2.67;;
82028;SDS011;71590;52.216;13.448;2024-03-23T09:55:54;8.37;;;3.07;;
82028;SDS011;71590;52.216;13.448;2024-03-23T09:58:20;7.87;;;2.70;;
82028;SDS011;71590;52.216;13.448;2024-03-23T10:00:47;8.03;;;2.30;;
82028;SDS011;71590;52.216;13.448;2024-03-23T10:03:12;6.50;;;2.50;;
82028;SDS011;71590;52.216;13.448;2024-03-23T10:05:40;6.40;;;2.00;;
82028;SDS011;71590;52.216;13.448;2024-03-23T10:08:16;10.80;;;2.57;;
82028;SDS011;71590;52.216;13.448;2024-03-23T10:10:43;17.77;;;2.13;;
82028;SDS011;71590;52.216;13.448;2024-03-23T10:13:09;9.40;;;2.30;;
82028;SDS011;71590;52.216;13.448;2024-03-23T10:15:38;11.37;;;2.57;;
82028;SDS011;71590;52.216;13.448;2024-03-23T10:18:04;26.33;;;3.30;;
82028;SDS011;71590;52.216;13.448;2024-03-23T10:20:46;12.27;;;2.60;;
82028;SDS011;71590;52.216;13.448;2024-03-23T10:23:15;10.93;;;3.27;;
82028;SDS011;71590;52.216;13.448;2024-03-23T10:25:42;11.20;;;3.20;;
82028;SDS011;71590;52.216;13.448;2024-03-23T10:28:07;8.10;;;2.77;;
82028;SDS011;71590;52.216;13.448;2024-03-23T10:30:34;9.10;;;2.53;;
82028;SDS011;71590;52.216;13.448;2024-03-23T10:33:06;12.93;;;3.10;;
82028;SDS011;71590;52.216;13.448;2024-03-23T10:35:32;11.17;;;2.97;;
82028;SDS011;71590;52.216;13.448;2024-03-23T10:37:59;7.00;;;2.00;;
82028;SDS011;71590;52.216;13.448;2024-03-23T10:40:26;6.07;;;2.70;;
82028;SDS011;71590;52.216;13.448;2024-03-23T10:42:52;4.67;;;2.03;;
82028;SDS011;71590;52.216;13.448;2024-03-23T10:45:19;8.23;;;2.63;;
82028;SDS011;71590;52.216;13.448;2024-03-23T10:47:45;6.23;;;2.80;;
82028;SDS011;71590;52.216;13.448;2024-03-23T10:50:12;3.87;;;2.13;;
82028;SDS011;71590;52.216;13.448;2024-03-23T10:52:38;6.20;;;2.10;;
82028;SDS011;71590;52.216;13.448;2024-03-23T10:55:06;9.30;;;2.50;;
82028;SDS011;71590;52.216;13.448;2024-03-23T10:57:34;5.40;;;2.37;;
82028;SDS011;71590;52.216;13.448;2024-03-23T11:00:03;7.07;;;3.47;;
82028;SDS011;71590;52.216;13.448;2024-03-23T11:02:29;5.70;;;2.60;;
82028;SDS011;71590;52.216;13.448;2024-03-23T11:04:56;9.60;;;3.67;;
82028;SDS011;71590;52.216;13.448;2024-03-23T11:07:28;11.20;;;3.30;;
82028;SDS011;71590;52.216;13.448;2024-03-23T11:09:55;10.37;;;3.10;;
82028;SDS011;71590;52.216;13.448;2024-03-23T11:12:28;9.20;;;2.57;;
82028;SDS011;71590;52.216;13.448;2024-03-23T11:14:58;9.90;;;3.93;;
82028;SDS011;71590;52.216;13.448;2024-03-23T11:17:24;6.80;;;3.83;;
82028;SDS011;71590;52.216;13.448;2024-03-23T11:19:55;11.27;;;5.33;;
82028;SDS011;71590;52.216;13.448;2024-03-23T11:22:37;8.90;;;4.20;;
82028;SDS011;71590;52.216;13.448;2024-03-23T11:25:08;7.33;;;3.83;;
82028;SDS011;71590;52.216;13.448;2024-03-23T11:27:38;7.43;;;2.93;;
82028;SDS011;71590;52.216;13.448;2024-03-23T11:30:12;7.13;;;2.60;;
82028;SDS011;71590;52.216;13.448;2024-03-23T11:32:37;6.80;;;2.97;;
82028;SDS011;71590;52.216;13.448;2024-03-23T11:35:04;7.47;;;2.60;;
82028;SDS011;71590;52.216;13.448;2024-03-23T11:37:30;8.00;;;2.10;;
82028;SDS011;71590;52.216;13.448;2024-03-23T11:39:56;5.80;;;2.20;;
82028;SDS011;71590;52.216;13.448;2024-03-23T11:42:22;8.57;;;2.50;;
82028;SDS011;71590;52.216;13.448;2024-03-23T11:44:50;5.83;;;2.37;;
82028;SDS011;71590;52.216;13.448;2024-03-23T11:47:15;9.43;;;2.73;;
82028;SDS011;71590;52.216;13.448;2024-03-23T11:49:42;9.73;;;2.40;;
82028;SDS011;71590;52.216;13.448;2024-03-23T11:52:07;6.93;;;2.50;;
82028;SDS011;71590;52.216;13.448;2024-03-23T11:54:34;8.03;;;2.57;;
82028;SDS011;71590;52.216;13.448;2024-03-23T11:57:00;5.30;;;2.33;;
82028;SDS011;71590;52.216;13.448;2024-03-23T11:59:31;7.20;;;2.33;;
82028;SDS011;71590;52.216;13.448;2024-03-23T12:01:58;6.63;;;2.03;;
82028;SDS011;71590;52.216;13.448;2024-03-23T12:04:25;7.10;;;2.20;;
82028;SDS011;71590;52.216;13.448;2024-03-23T12:06:51;4.57;;;2.20;;
82028;SDS011;71590;52.216;13.448;2024-03-23T12:09:17;4.57;;;2.10;;
82028;SDS011;71590;52.216;13.448;2024-03-23T12:11:45;8.13;;;3.00;;
82028;SDS011;71590;52.216;13.448;2024-03-23T12:14:14;12.37;;;2.37;;
82028;SDS011;71590;52.216;13.448;2024-03-23T12:16:39;4.83;;;2.10;;
82028;SDS011;71590;52.216;13.448;2024-03-23T12:19:07;4.57;;;2.17;;
82028;SDS011;71590;52.216;13.448;2024-03-23T12:21:33;6.17;;;3.07;;
82028;SDS011;71590;52.216;13.448;2024-03-23T12:23:59;4.37;;;2.13;;
82028;SDS011;71590;52.216;13.448;2024-03-23T12:26:25;8.90;;;2.37;;
82028;SDS011;71590;52.216;13.448;2024-03-23T12:28:52;6.03;;;2.20;;
82028;SDS011;71590;52.216;13.448;2024-03-23T12:31:17;6.00;;;2.20;;
82028;SDS011;71590;52.216;13.448;2024-03-23T12:33:44;10.63;;;2.53;;
82028;SDS011;71590;52.216;13.448;2024-03-23T12:36:11;9.23;;;2.90;;
82028;SDS011;71590;52.216;13.448;2024-03-23T12:38:37;6.10;;;2.13;;
82028;SDS011;71590;52.216;13.448;2024-03-23T12:41:03;4.87;;;2.07;;
82028;SDS011;71590;52.216;13.448;2024-03-23T12:43:30;8.30;;;2.23;;
82028;SDS011;71590;52.216;13.448;2024-03-23T12:45:56;8.57;;;2.60;;
82028;SDS011;71590;52.216;13.448;2024-03-23T12:48:22;6.37;;;2.27;;
82028;SDS011;71590;52.216;13.448;2024-03-23T12:50:47;7.43;;;2.33;;
82028;SDS011;71590;52.216;13.448;2024-03-23T12:53:15;4.93;;;2.23;;
82028;SDS011;71590;52.216;13.448;2024-03-23T12:55:42;8.07;;;2.50;;
82028;SDS011;71590;52.216;13.448;2024-03-23T12:58:08;6.67;;;2.83;;
82028;SDS011;71590;52.216;13.448;2024-03-23T13:00:34;10.07;;;2.47;;
82028;SDS011;71590;52.216;13.448;2024-03-23T13:03:00;8.03;;;3.50;;
82028;SDS011;71590;52.216;13.448;2024-03-23T13:05:26;4.03;;;1.80;;
82028;SDS011;71590;52.216;13.448;2024-03-23T13:07:52;7.20;;;2.80;;
82028;SDS011;71590;52.216;13.448;2024-03-23T13:10:19;5.80;;;2.77;;
82028;SDS011;71590;52.216;13.448;2024-03-23T13:12:46;11.27;;;5.23;;
82028;SDS011;71590;52.216;13.448;2024-03-23T13:15:11;8.80;;;2.77;;
82028;SDS011;71590;52.216;13.448;2024-03-23T13:17:38;11.17;;;2.63;;
82028;SDS011;71590;52.216;13.448;2024-03-23T13:20:04;5.53;;;2.30;;
82028;SDS011;71590;52.216;13.448;2024-03-23T13:22:30;9.53;;;2.20;;
82028;SDS011;71590;52.216;13.448;2024-03-23T13:24:56;7.07;;;2.33;;
82028;SDS011;71590;52.216;13.448;2024-03-23T13:27:24;10.50;;;3.27;;
82028;SDS011;71590;52.216;13.448;2024-03-23T13:29:49;12.33;;;3.73;;
82028;SDS011;71590;52.216;13.448;2024-03-23T13:32:16;9.97;;;2.90;;
82028;SDS011;71590;52.216;13.448;2024-03-23T13:34:41;12.37;;;3.07;;
82028;SDS011;71590;52.216;13.448;2024-03-23T13:37:08;11.43;;;2.63;;
82028;SDS011;71590;52.216;13.448;2024-03-23T13:39:33;8.80;;;2.97;;
82028;SDS011;71590;52.216;13.448;2024-03-23T13:42:00;7.87;;;3.30;;
82028;SDS011;71590;52.216;13.448;2024-03-23T13:44:27;7.43;;;2.40;;
82028;SDS011;71590;52.216;13.448;2024-03-23T13:46:53;6.47;;;2.13;;
82028;SDS011;71590;52.216;13.448;2024-03-23T13:49:25;9.50;;;3.20;;
82028;SDS011;71590;52.216;13.448;2024-03-23T13:51:53;7.93;;;2.70;;
82028;SDS011;71590;52.216;13.448;2024-03-23T13:54:18;8.30;;;3.20;;
82028;SDS011;71590;52.216;13.448;2024-03-23T13:56:45;9.90;;;3.37;;
82028;SDS011;71590;52.216;13.448;2024-03-23T13:59:10;7.67;;;2.77;;
82028;SDS011;71590;52.216;13.448;2024-03-23T14:01:38;10.03;;;3.00;;
82028;SDS011;71590;52.216;13.448;2024-03-23T14:04:04;8.73;;;3.40;;
82028;SDS011;71590;52.216;13.448;2024-03-23T14:06:30;11.37;;;3.77;;
82028;SDS011;71590;52.216;13.448;2024-03-23T14:08:56;9.30;;;3.20;;
82028;SDS011;71590;52.216;13.448;2024-03-23T14:11:22;12.10;;;3.73;;
82028;SDS011;71590;52.216;13.448;2024-03-23T14:13:48;9.97;;;4.37;;
82028;SDS011;71590;52.216;13.448;2024-03-23T14:16:14;9.90;;;3.97;;
82028;SDS011;71590;52.216;13.448;2024-03-23T14:18:41;10.37;;;4.40;;
82028;SDS011;71590;52.216;13.448;2024-03-23T14:21:08;8.60;;;4.03;;
82028;SDS011;71590;52.216;13.448;2024-03-23T14:23:33;9.23;;;4.20;;
82028;SDS011;71590;52.216;13.448;2024-03-23T14:26:00;10.27;;;4.20;;
82028;SDS011;71590;52.216;13.448;2024-03-23T14:28:26;11.87;;;4.53;;
82028;SDS011;71590;52.216;13.448;2024-03-23T14:30:54;10.23;;;3.80;;
82028;SDS011;71590;52.216;13.448;2024-03-23T14:33:20;6.53;;;3.53;;
82028;SDS011;71590;52.216;13.448;2024-03-23T14:35:52;8.87;;;3.30;;
82028;SDS011;71590;52.216;13.448;2024-03-23T14:38:18;9.27;;;3.23;;
82028;SDS011;71590;52.216;13.448;2024-03-23T14:40:45;7.97;;;3.50;;
82028;SDS011;71590;52.216;13.448;2024-03-23T14:43:10;9.17;;;3.10;;
82028;SDS011;71590;52.216;13.448;2024-03-23T14:45:37;6.63;;;2.70;;
82028;SDS011;71590;52.216;13.448;2024-03-23T14:48:02;8.03;;;3.37;;
82028;SDS011;71590;52.216;13.448;2024-03-23T14:50:34;5.07;;;2.80;;
82028;SDS011;71590;52.216;13.448;2024-03-23T14:53:01;8.00;;;2.67;;
82028;SDS011;71590;52.216;13.448;2024-03-23T14:55:28;5.13;;;2.50;;
82028;SDS011;71590;52.216;13.448;2024-03-23T14:57:53;3.90;;;2.20;;
82028;SDS011;71590;52.216;13.448;2024-03-23T15:00:20;4.23;;;2.40;;
82028;SDS011;71590;52.216;13.448;2024-03-23T15:02:46;4.43;;;2.93;;
82028;SDS011;71590;52.216;13.448;2024-03-23T15:05:12;4.60;;;2.60;;
82028;SDS011;71590;52.216;13.448;2024-03-23T15:07:38;6.60;;;2.67;;
82028;SDS011;71590;52.216;13.448;2024-03-23T15:10:08;6.17;;;2.80;;
82028;SDS011;71590;52.216;13.448;2024-03-23T15:12:35;12.50;;;3.40;;
82028;SDS011;71590;52.216;13.448;2024-03-23T15:15:02;10.93;;;3.67;;
82028;SDS011;71590;52.216;13.448;2024-03-23T15:17:27;7.10;;;2.80;;
82028;SDS011;71590;52.216;13.448;2024-03-23T15:19:54;9.97;;;3.50;;